sensor_id;sensor_type;location;lat;lon;timestamp;P1;durP1;ratioP1;P2;durP2;ratioP2
72198;SDS011;60103;51.014;16.992;2023-07-31T00:00:18;8.90;;;1.90;;
72198;SDS011;60103;51.014;16.992;2023-07-31T00:03:07;6.80;;;2.10;;
72198;SDS011;60103;51.014;16.992;2023-07-31T00:05:36;8.70;;;1.90;;
72198;SDS011;60103;51.014;16.992;2023-07-31T00:08:05;6.70;;;1.90;;
72198;SDS011;60103;51.014;16.992;2023-07-31T00:10:34;7.50;;;2.20;;
72198;SDS011;60103;51.014;16.992;2023-07-31T00:13:02;6.30;;;2.00;;
72198;SDS011;60103;51.014;16.992;2023-07-31T00:15:31;6.40;;;1.90;;
72198;SDS011;60103;51.014;16.992;2023-07-31T00:18:00;7.40;;;1.90;;
72198;SDS011;60103;51.014;16.992;2023-07-31T00:20:29;7.70;;;2.00;;
72198;SDS011;60103;51.014;16.992;2023-07-31T00:22:58;8.10;;;1.90;;
72198;SDS011;60103;51.014;16.992;2023-07-31T00:25:27;6.40;;;1.90;;
72198;SDS011;60103;51.014;16.992;2023-07-31T00:27:56;5.40;;;1.40;;
72198;SDS011;60103;51.014;16.992;2023-07-31T00:30:27;6.50;;;1.50;;
72198;SDS011;60103;51.014;16.992;2023-07-31T00:32:56;5.80;;;1.80;;
72198;SDS011;60103;51.014;16.992;2023-07-31T00:35:25;5.40;;;1.30;;
72198;SDS011;60103;51.014;16.992;2023-07-31T00:37:54;6.40;;;1.90;;
72198;SDS011;60103;51.014;16.992;2023-07-31T00:40:23;9.00;;;1.90;;
72198;SDS011;60103;51.014;16.992;2023-07-31T00:42:52;7.80;;;1.70;;
72198;SDS011;60103;51.014;16.992;2023-07-31T00:45:21;8.10;;;2.00;;
72198;SDS011;60103;51.014;16.992;2023-07-31T00:47:51;6.10;;;1.80;;
72198;SDS011;60103;51.014;16.992;2023-07-31T00:50:20;6.90;;;1.60;;
72198;SDS011;60103;51.014;16.992;2023-07-31T00:52:50;8.00;;;1.60;;
72198;SDS011;60103;51.014;16.992;2023-07-31T00:55:19;6.40;;;1.80;;
72198;SDS011;60103;51.014;16.992;2023-07-31T00:57:50;7.40;;;2.00;;
72198;SDS011;60103;51.014;16.992;2023-07-31T01:00:20;6.30;;;1.80;;
72198;SDS011;60103;51.014;16.992;2023-07-31T01:02:50;7.40;;;2.10;;
72198;SDS011;60103;51.014;16.992;2023-07-31T01:05:23;7.70;;;2.30;;
72198;SDS011;60103;51.014;16.992;2023-07-31T01:08:21;8.30;;;2.00;;
72198;SDS011;60103;51.014;16.992;2023-07-31T01:10:50;8.90;;;2.20;;
72198;SDS011;60103;51.014;16.992;2023-07-31T01:13:24;7.30;;;2.50;;
72198;SDS011;60103;51.014;16.992;2023-07-31T01:15:53;7.50;;;2.30;;
72198;SDS011;60103;51.014;16.992;2023-07-31T01:18:22;7.80;;;2.40;;
72198;SDS011;60103;51.014;16.992;2023-07-31T01:20:54;7.50;;;2.90;;
72198;SDS011;60103;51.014;16.992;2023-07-31T01:31:54;9.30;;;2.90;;
72198;SDS011;60103;51.014;16.992;2023-07-31T01:34:24;10.20;;;3.60;;
72198;SDS011;60103;51.014;16.992;2023-07-31T01:36:53;8.40;;;3.00;;
72198;SDS011;60103;51.014;16.992;2023-07-31T01:39:23;8.50;;;2.90;;
72198;SDS011;60103;51.014;16.992;2023-07-31T01:41:52;7.80;;;2.90;;
72198;SDS011;60103;51.014;16.992;2023-07-31T01:44:21;9.00;;;3.10;;
72198;SDS011;60103;51.014;16.992;2023-07-31T01:46:50;7.60;;;3.20;;
72198;SDS011;60103;51.014;16.992;2023-07-31T01:49:18;8.80;;;3.40;;
72198;SDS011;60103;51.014;16.992;2023-07-31T01:51:47;9.20;;;3.20;;
72198;SDS011;60103;51.014;16.992;2023-07-31T01:54:16;8.70;;;3.40;;
72198;SDS011;60103;51.014;16.992;2023-07-31T01:56:45;7.80;;;2.90;;
72198;SDS011;60103;51.014;16.992;2023-07-31T01:59:14;8.30;;;3.00;;
72198;SDS011;60103;51.014;16.992;2023-07-31T02:01:43;8.60;;;2.50;;
72198;SDS011;60103;51.014;16.992;2023-07-31T02:04:12;8.30;;;2.80;;
72198;SDS011;60103;51.014;16.992;2023-07-31T02:06:41;8.80;;;2.70;;
72198;SDS011;60103;51.014;16.992;2023-07-31T02:09:10;9.10;;;2.70;;
72198;SDS011;60103;51.014;16.992;2023-07-31T02:11:39;7.90;;;2.70;;
72198;SDS011;60103;51.014;16.992;2023-07-31T02:14:07;8.60;;;2.80;;
72198;SDS011;60103;51.014;16.992;2023-07-31T02:16:36;11.60;;;2.20;;
72198;SDS011;60103;51.014;16.992;2023-07-31T02:19:06;10.00;;;2.30;;
72198;SDS011;60103;51.014;16.992;2023-07-31T02:21:35;10.30;;;2.60;;
72198;SDS011;60103;51.014;16.992;2023-07-31T02:24:04;8.10;;;2.00;;
72198;SDS011;60103;51.014;16.992;2023-07-31T02:26:33;9.00;;;1.80;;
72198;SDS011;60103;51.014;16.992;2023-07-31T02:29:03;9.50;;;2.40;;
72198;SDS011;60103;51.014;16.992;2023-07-31T02:31:32;10.60;;;2.20;;
72198;SDS011;60103;51.014;16.992;2023-07-31T02:34:01;9.10;;;2.20;;
72198;SDS011;60103;51.014;16.992;2023-07-31T02:36:30;7.80;;;2.40;;
72198;SDS011;60103;51.014;16.992;2023-07-31T02:38:59;7.30;;;1.90;;
72198;SDS011;60103;51.014;16.992;2023-07-31T02:41:28;8.00;;;2.50;;
72198;SDS011;60103;51.014;16.992;2023-07-31T02:43:56;7.40;;;1.90;;
72198;SDS011;60103;51.014;16.992;2023-07-31T02:46:25;9.50;;;2.00;;
72198;SDS011;60103;51.014;16.992;2023-07-31T02:48:55;7.40;;;1.80;;
72198;SDS011;60103;51.014;16.992;2023-07-31T02:51:24;8.10;;;1.90;;
72198;SDS011;60103;51.014;16.992;2023-07-31T02:53:53;8.50;;;2.00;;
72198;SDS011;60103;51.014;16.992;2023-07-31T02:56:22;9.20;;;1.90;;
72198;SDS011;60103;51.014;16.992;2023-07-31T02:58:50;7.60;;;1.90;;
72198;SDS011;60103;51.014;16.992;2023-07-31T03:01:19;10.80;;;2.30;;
72198;SDS011;60103;51.014;16.992;2023-07-31T03:03:48;8.50;;;2.30;;
72198;SDS011;60103;51.014;16.992;2023-07-31T03:06:17;9.20;;;2.30;;
72198;SDS011;60103;51.014;16.992;2023-07-31T03:08:45;7.00;;;1.80;;
72198;SDS011;60103;51.014;16.992;2023-07-31T03:11:15;7.10;;;2.30;;
72198;SDS011;60103;51.014;16.992;2023-07-31T03:13:44;6.50;;;2.10;;
72198;SDS011;60103;51.014;16.992;2023-07-31T03:16:12;8.80;;;1.80;;
72198;SDS011;60103;51.014;16.992;2023-07-31T03:18:42;7.50;;;1.80;;
72198;SDS011;60103;51.014;16.992;2023-07-31T03:21:10;8.20;;;1.80;;
72198;SDS011;60103;51.014;16.992;2023-07-31T03:23:39;6.60;;;2.00;;
72198;SDS011;60103;51.014;16.992;2023-07-31T03:26:08;9.50;;;2.20;;
72198;SDS011;60103;51.014;16.992;2023-07-31T03:28:37;9.30;;;2.30;;
72198;SDS011;60103;51.014;16.992;2023-07-31T03:31:06;8.10;;;2.60;;
72198;SDS011;60103;51.014;16.992;2023-07-31T03:33:36;6.70;;;2.50;;
72198;SDS011;60103;51.014;16.992;2023-07-31T03:36:05;9.10;;;2.90;;
72198;SDS011;60103;51.014;16.992;2023-07-31T03:38:34;10.40;;;3.40;;
72198;SDS011;60103;51.014;16.992;2023-07-31T03:41:03;11.80;;;3.50;;
72198;SDS011;60103;51.014;16.992;2023-07-31T03:43:33;10.60;;;4.20;;
72198;SDS011;60103;51.014;16.992;2023-07-31T03:46:03;9.70;;;3.70;;
72198;SDS011;60103;51.014;16.992;2023-07-31T03:48:31;8.10;;;3.60;;
72198;SDS011;60103;51.014;16.992;2023-07-31T03:51:00;8.60;;;3.90;;
72198;SDS011;60103;51.014;16.992;2023-07-31T03:53:29;9.40;;;3.90;;
72198;SDS011;60103;51.014;16.992;2023-07-31T03:55:58;9.60;;;4.00;;
72198;SDS011;60103;51.014;16.992;2023-07-31T03:58:27;9.10;;;3.80;;
72198;SDS011;60103;51.014;16.992;2023-07-31T04:00:56;10.00;;;3.70;;
72198;SDS011;60103;51.014;16.992;2023-07-31T04:03:24;8.60;;;3.80;;
72198;SDS011;60103;51.014;16.992;2023-07-31T04:05:56;12.80;;;4.20;;
72198;SDS011;60103;51.014;16.992;2023-07-31T04:08:25;12.70;;;4.30;;
72198;SDS011;60103;51.014;16.992;2023-07-31T04:10:54;10.80;;;4.10;;
72198;SDS011;60103;51.014;16.992;2023-07-31T04:13:23;8.60;;;3.80;;
72198;SDS011;60103;51.014;16.992;2023-07-31T04:15:51;9.10;;;3.60;;
72198;SDS011;60103;51.014;16.992;2023-07-31T04:18:20;9.10;;;3.70;;
72198;SDS011;60103;51.014;16.992;2023-07-31T04:20:49;7.50;;;3.50;;
72198;SDS011;60103;51.014;16.992;2023-07-31T04:23:18;8.00;;;3.10;;
72198;SDS011;60103;51.014;16.992;2023-07-31T04:25:47;8.80;;;3.10;;
72198;SDS011;60103;51.014;16.992;2023-07-31T04:28:16;9.10;;;3.00;;
72198;SDS011;60103;51.014;16.992;2023-07-31T04:30:44;8.50;;;2.80;;
72198;SDS011;60103;51.014;16.992;2023-07-31T04:33:17;10.00;;;2.80;;
72198;SDS011;60103;51.014;16.992;2023-07-31T04:35:50;7.20;;;2.90;;
72198;SDS011;60103;51.014;16.992;2023-07-31T04:38:21;9.00;;;2.50;;
72198;SDS011;60103;51.014;16.992;2023-07-31T04:40:50;7.70;;;2.30;;
72198;SDS011;60103;51.014;16.992;2023-07-31T04:43:19;9.00;;;2.10;;
72198;SDS011;60103;51.014;16.992;2023-07-31T04:45:48;7.40;;;2.00;;
72198;SDS011;60103;51.014;16.992;2023-07-31T04:48:18;7.90;;;1.90;;
72198;SDS011;60103;51.014;16.992;2023-07-31T04:50:47;9.90;;;1.90;;
72198;SDS011;60103;51.014;16.992;2023-07-31T04:53:16;7.60;;;2.40;;
72198;SDS011;60103;51.014;16.992;2023-07-31T04:55:45;8.60;;;2.00;;
72198;SDS011;60103;51.014;16.992;2023-07-31T04:58:14;8.00;;;1.90;;
72198;SDS011;60103;51.014;16.992;2023-07-31T05:00:43;7.90;;;1.90;;
72198;SDS011;60103;51.014;16.992;2023-07-31T05:03:11;7.40;;;1.80;;
72198;SDS011;60103;51.014;16.992;2023-07-31T05:05:40;7.20;;;2.00;;
72198;SDS011;60103;51.014;16.992;2023-07-31T05:08:09;7.20;;;1.70;;
72198;SDS011;60103;51.014;16.992;2023-07-31T05:10:38;6.30;;;2.00;;
72198;SDS011;60103;51.014;16.992;2023-07-31T05:13:07;7.30;;;1.80;;
72198;SDS011;60103;51.014;16.992;2023-07-31T05:15:36;7.80;;;1.80;;
72198;SDS011;60103;51.014;16.992;2023-07-31T05:18:04;6.90;;;1.60;;
72198;SDS011;60103;51.014;16.992;2023-07-31T05:20:33;6.20;;;1.90;;
72198;SDS011;60103;51.014;16.992;2023-07-31T05:23:02;7.50;;;1.90;;
72198;SDS011;60103;51.014;16.992;2023-07-31T05:25:31;7.90;;;2.00;;
72198;SDS011;60103;51.014;16.992;2023-07-31T05:28:00;7.60;;;2.10;;
72198;SDS011;60103;51.014;16.992;2023-07-31T05:30:32;7.30;;;2.00;;
72198;SDS011;60103;51.014;16.992;2023-07-31T05:33:00;9.20;;;1.80;;
72198;SDS011;60103;51.014;16.992;2023-07-31T05:35:29;8.40;;;1.90;;
72198;SDS011;60103;51.014;16.992;2023-07-31T05:37:58;6.60;;;2.00;;
72198;SDS011;60103;51.014;16.992;2023-07-31T05:40:27;8.70;;;2.10;;
72198;SDS011;60103;51.014;16.992;2023-07-31T05:42:56;9.00;;;2.10;;
72198;SDS011;60103;51.014;16.992;2023-07-31T05:45:25;6.90;;;1.60;;
72198;SDS011;60103;51.014;16.992;2023-07-31T05:47:54;6.80;;;2.00;;
72198;SDS011;60103;51.014;16.992;2023-07-31T05:50:23;9.60;;;2.10;;
72198;SDS011;60103;51.014;16.992;2023-07-31T05:52:52;8.80;;;2.10;;
72198;SDS011;60103;51.014;16.992;2023-07-31T05:55:21;8.70;;;2.10;;
72198;SDS011;60103;51.014;16.992;2023-07-31T05:57:50;7.00;;;2.30;;
72198;SDS011;60103;51.014;16.992;2023-07-31T06:00:19;11.50;;;2.20;;
72198;SDS011;60103;51.014;16.992;2023-07-31T06:02:49;8.40;;;2.00;;
72198;SDS011;60103;51.014;16.992;2023-07-31T06:05:18;7.10;;;1.90;;
72198;SDS011;60103;51.014;16.992;2023-07-31T06:07:47;7.80;;;1.70;;
72198;SDS011;60103;51.014;16.992;2023-07-31T06:10:16;6.90;;;1.60;;
72198;SDS011;60103;51.014;16.992;2023-07-31T06:12:46;7.40;;;1.80;;
72198;SDS011;60103;51.014;16.992;2023-07-31T06:15:15;10.00;;;2.20;;
72198;SDS011;60103;51.014;16.992;2023-07-31T06:17:43;7.40;;;1.90;;
72198;SDS011;60103;51.014;16.992;2023-07-31T06:20:12;7.60;;;1.70;;
72198;SDS011;60103;51.014;16.992;2023-07-31T06:22:41;8.10;;;1.60;;
72198;SDS011;60103;51.014;16.992;2023-07-31T06:25:10;6.70;;;1.80;;
72198;SDS011;60103;51.014;16.992;2023-07-31T06:27:42;7.20;;;1.70;;
72198;SDS011;60103;51.014;16.992;2023-07-31T06:30:11;5.70;;;1.60;;
72198;SDS011;60103;51.014;16.992;2023-07-31T06:32:40;7.90;;;1.50;;
72198;SDS011;60103;51.014;16.992;2023-07-31T06:35:09;6.60;;;1.70;;
72198;SDS011;60103;51.014;16.992;2023-07-31T06:37:38;5.50;;;1.50;;
72198;SDS011;60103;51.014;16.992;2023-07-31T06:40:09;9.20;;;1.90;;
72198;SDS011;60103;51.014;16.992;2023-07-31T06:42:38;6.70;;;1.70;;
72198;SDS011;60103;51.014;16.992;2023-07-31T06:45:07;6.20;;;1.70;;
72198;SDS011;60103;51.014;16.992;2023-07-31T06:47:37;8.00;;;1.80;;
72198;SDS011;60103;51.014;16.992;2023-07-31T06:50:07;6.00;;;1.70;;
72198;SDS011;60103;51.014;16.992;2023-07-31T06:52:36;6.40;;;1.90;;
72198;SDS011;60103;51.014;16.992;2023-07-31T06:55:18;6.50;;;1.50;;
72198;SDS011;60103;51.014;16.992;2023-07-31T06:57:48;6.80;;;1.80;;
72198;SDS011;60103;51.014;16.992;2023-07-31T07:00:19;5.80;;;1.60;;
72198;SDS011;60103;51.014;16.992;2023-07-31T07:02:48;7.60;;;1.80;;
72198;SDS011;60103;51.014;16.992;2023-07-31T07:05:17;6.60;;;1.70;;
72198;SDS011;60103;51.014;16.992;2023-07-31T07:07:48;7.20;;;1.80;;
72198;SDS011;60103;51.014;16.992;2023-07-31T07:10:18;7.40;;;1.60;;
72198;SDS011;60103;51.014;16.992;2023-07-31T07:12:47;7.20;;;1.60;;
72198;SDS011;60103;51.014;16.992;2023-07-31T07:15:16;8.00;;;1.70;;
72198;SDS011;60103;51.014;16.992;2023-07-31T07:17:44;7.70;;;1.60;;
72198;SDS011;60103;51.014;16.992;2023-07-31T07:20:14;5.90;;;1.60;;
72198;SDS011;60103;51.014;16.992;2023-07-31T07:22:43;7.00;;;1.70;;
72198;SDS011;60103;51.014;16.992;2023-07-31T07:25:12;7.90;;;1.40;;
72198;SDS011;60103;51.014;16.992;2023-07-31T07:27:41;5.80;;;1.40;;
72198;SDS011;60103;51.014;16.992;2023-07-31T07:30:10;6.60;;;1.40;;
72198;SDS011;60103;51.014;16.992;2023-07-31T07:32:39;7.80;;;1.70;;
72198;SDS011;60103;51.014;16.992;2023-07-31T07:35:08;6.40;;;1.60;;
72198;SDS011;60103;51.014;16.992;2023-07-31T07:37:38;5.10;;;1.40;;
72198;SDS011;60103;51.014;16.992;2023-07-31T07:40:06;7.40;;;2.10;;
72198;SDS011;60103;51.014;16.992;2023-07-31T07:42:36;6.70;;;1.60;;
72198;SDS011;60103;51.014;16.992;2023-07-31T07:45:05;7.10;;;1.70;;
72198;SDS011;60103;51.014;16.992;2023-07-31T07:47:34;5.60;;;1.30;;
72198;SDS011;60103;51.014;16.992;2023-07-31T07:50:03;8.70;;;1.50;;
72198;SDS011;60103;51.014;16.992;2023-07-31T07:52:36;7.00;;;1.70;;
72198;SDS011;60103;51.014;16.992;2023-07-31T07:55:05;7.40;;;2.10;;
72198;SDS011;60103;51.014;16.992;2023-07-31T07:57:34;5.10;;;1.50;;
72198;SDS011;60103;51.014;16.992;2023-07-31T08:00:03;8.90;;;1.80;;
72198;SDS011;60103;51.014;16.992;2023-07-31T08:02:40;8.80;;;1.30;;
72198;SDS011;60103;51.014;16.992;2023-07-31T08:05:09;7.10;;;1.80;;
72198;SDS011;60103;51.014;16.992;2023-07-31T08:07:38;5.90;;;1.30;;
72198;SDS011;60103;51.014;16.992;2023-07-31T08:10:07;6.50;;;1.60;;
72198;SDS011;60103;51.014;16.992;2023-07-31T08:12:36;6.60;;;1.80;;
72198;SDS011;60103;51.014;16.992;2023-07-31T08:15:05;6.60;;;1.60;;
72198;SDS011;60103;51.014;16.992;2023-07-31T08:17:35;6.50;;;1.80;;
72198;SDS011;60103;51.014;16.992;2023-07-31T08:20:04;5.30;;;1.80;;
72198;SDS011;60103;51.014;16.992;2023-07-31T08:22:34;7.00;;;2.00;;
72198;SDS011;60103;51.014;16.992;2023-07-31T08:25:03;7.10;;;1.30;;
72198;SDS011;60103;51.014;16.992;2023-07-31T08:27:32;7.30;;;1.40;;
72198;SDS011;60103;51.014;16.992;2023-07-31T08:30:01;6.60;;;1.50;;
72198;SDS011;60103;51.014;16.992;2023-07-31T08:32:30;5.50;;;1.20;;
72198;SDS011;60103;51.014;16.992;2023-07-31T08:34:59;7.70;;;1.60;;
72198;SDS011;60103;51.014;16.992;2023-07-31T08:37:28;7.10;;;1.40;;
72198;SDS011;60103;51.014;16.992;2023-07-31T08:39:57;6.20;;;1.60;;
72198;SDS011;60103;51.014;16.992;2023-07-31T08:42:26;7.30;;;1.60;;
72198;SDS011;60103;51.014;16.992;2023-07-31T08:44:58;8.50;;;1.60;;
72198;SDS011;60103;51.014;16.992;2023-07-31T08:47:28;7.00;;;1.60;;
72198;SDS011;60103;51.014;16.992;2023-07-31T08:49:57;7.10;;;1.80;;
72198;SDS011;60103;51.014;16.992;2023-07-31T08:52:26;9.80;;;2.10;;
72198;SDS011;60103;51.014;16.992;2023-07-31T08:54:55;8.00;;;2.00;;
72198;SDS011;60103;51.014;16.992;2023-07-31T08:57:24;5.40;;;1.80;;
72198;SDS011;60103;51.014;16.992;2023-07-31T08:59:53;6.60;;;1.80;;
72198;SDS011;60103;51.014;16.992;2023-07-31T09:02:21;7.30;;;2.00;;
72198;SDS011;60103;51.014;16.992;2023-07-31T09:04:51;6.80;;;1.70;;
72198;SDS011;60103;51.014;16.992;2023-07-31T09:07:19;6.90;;;2.20;;
72198;SDS011;60103;51.014;16.992;2023-07-31T09:09:50;8.10;;;2.20;;
72198;SDS011;60103;51.014;16.992;2023-07-31T09:12:18;7.90;;;2.10;;
72198;SDS011;60103;51.014;16.992;2023-07-31T09:14:47;9.00;;;2.40;;
72198;SDS011;60103;51.014;16.992;2023-07-31T09:17:27;5.30;;;1.20;;
72198;SDS011;60103;51.014;16.992;2023-07-31T09:20:06;6.10;;;1.60;;
72198;SDS011;60103;51.014;16.992;2023-07-31T09:22:45;7.00;;;2.00;;
72198;SDS011;60103;51.014;16.992;2023-07-31T09:25:18;4.90;;;1.50;;
72198;SDS011;60103;51.014;16.992;2023-07-31T09:27:49;7.80;;;1.70;;
72198;SDS011;60103;51.014;16.992;2023-07-31T09:30:28;6.00;;;1.70;;
72198;SDS011;60103;51.014;16.992;2023-07-31T09:33:01;7.20;;;1.90;;
72198;SDS011;60103;51.014;16.992;2023-07-31T09:35:32;6.00;;;1.90;;
72198;SDS011;60103;51.014;16.992;2023-07-31T09:38:06;7.70;;;1.70;;
72198;SDS011;60103;51.014;16.992;2023-07-31T09:40:40;5.80;;;1.80;;
72198;SDS011;60103;51.014;16.992;2023-07-31T09:43:21;6.00;;;1.80;;
72198;SDS011;60103;51.014;16.992;2023-07-31T09:45:54;6.40;;;1.90;;
72198;SDS011;60103;51.014;16.992;2023-07-31T09:48:25;6.30;;;1.90;;
72198;SDS011;60103;51.014;16.992;2023-07-31T09:50:56;5.60;;;1.30;;
72198;SDS011;60103;51.014;16.992;2023-07-31T09:53:32;7.00;;;1.70;;
72198;SDS011;60103;51.014;16.992;2023-07-31T09:56:01;6.80;;;1.80;;
72198;SDS011;60103;51.014;16.992;2023-07-31T09:58:30;6.30;;;1.80;;
72198;SDS011;60103;51.014;16.992;2023-07-31T10:01:03;5.80;;;1.70;;
72198;SDS011;60103;51.014;16.992;2023-07-31T10:03:32;4.90;;;1.50;;
72198;SDS011;60103;51.014;16.992;2023-07-31T10:06:02;6.00;;;1.70;;
72198;SDS011;60103;51.014;16.992;2023-07-31T10:08:32;5.70;;;1.80;;
72198;SDS011;60103;51.014;16.992;2023-07-31T10:11:04;7.20;;;1.60;;
72198;SDS011;60103;51.014;16.992;2023-07-31T10:13:34;5.20;;;1.50;;
72198;SDS011;60103;51.014;16.992;2023-07-31T10:16:04;6.80;;;1.60;;
72198;SDS011;60103;51.014;16.992;2023-07-31T10:18:33;8.10;;;2.10;;
72198;SDS011;60103;51.014;16.992;2023-07-31T10:21:03;6.20;;;2.20;;
72198;SDS011;60103;51.014;16.992;2023-07-31T10:23:32;5.80;;;1.50;;
72198;SDS011;60103;51.014;16.992;2023-07-31T10:26:01;6.30;;;2.00;;
72198;SDS011;60103;51.014;16.992;2023-07-31T10:28:31;6.20;;;1.70;;
72198;SDS011;60103;51.014;16.992;2023-07-31T10:31:01;5.20;;;1.70;;
72198;SDS011;60103;51.014;16.992;2023-07-31T10:33:31;7.30;;;1.80;;
72198;SDS011;60103;51.014;16.992;2023-07-31T10:36:14;6.20;;;1.60;;
72198;SDS011;60103;51.014;16.992;2023-07-31T10:38:49;6.10;;;1.60;;
72198;SDS011;60103;51.014;16.992;2023-07-31T10:41:28;5.20;;;1.40;;
72198;SDS011;60103;51.014;16.992;2023-07-31T10:44:00;6.30;;;1.70;;
72198;SDS011;60103;51.014;16.992;2023-07-31T10:46:29;6.20;;;1.80;;
72198;SDS011;60103;51.014;16.992;2023-07-31T10:48:59;5.10;;;1.70;;
72198;SDS011;60103;51.014;16.992;2023-07-31T10:51:33;7.00;;;2.10;;
72198;SDS011;60103;51.014;16.992;2023-07-31T10:54:10;5.60;;;1.90;;
72198;SDS011;60103;51.014;16.992;2023-07-31T10:56:44;4.90;;;1.70;;
72198;SDS011;60103;51.014;16.992;2023-07-31T10:59:18;6.60;;;1.80;;
72198;SDS011;60103;51.014;16.992;2023-07-31T11:04:22;5.90;;;2.00;;
72198;SDS011;60103;51.014;16.992;2023-07-31T11:06:59;5.40;;;1.60;;
72198;SDS011;60103;51.014;16.992;2023-07-31T11:09:30;8.90;;;1.90;;
72198;SDS011;60103;51.014;16.992;2023-07-31T11:12:00;5.50;;;1.80;;
72198;SDS011;60103;51.014;16.992;2023-07-31T11:14:29;6.60;;;2.20;;
72198;SDS011;60103;51.014;16.992;2023-07-31T11:16:58;8.50;;;2.00;;
72198;SDS011;60103;51.014;16.992;2023-07-31T11:19:27;7.30;;;1.90;;
72198;SDS011;60103;51.014;16.992;2023-07-31T11:21:56;7.00;;;1.60;;
72198;SDS011;60103;51.014;16.992;2023-07-31T11:24:25;5.80;;;1.70;;
72198;SDS011;60103;51.014;16.992;2023-07-31T11:26:54;5.80;;;1.60;;
72198;SDS011;60103;51.014;16.992;2023-07-31T11:29:26;5.90;;;1.40;;
72198;SDS011;60103;51.014;16.992;2023-07-31T11:31:57;6.00;;;1.90;;
72198;SDS011;60103;51.014;16.992;2023-07-31T11:34:26;6.70;;;1.90;;
72198;SDS011;60103;51.014;16.992;2023-07-31T11:36:55;7.30;;;1.50;;
72198;SDS011;60103;51.014;16.992;2023-07-31T11:39:24;5.30;;;1.50;;
72198;SDS011;60103;51.014;16.992;2023-07-31T11:41:58;5.60;;;1.40;;
72198;SDS011;60103;51.014;16.992;2023-07-31T11:44:36;8.10;;;1.90;;
72198;SDS011;60103;51.014;16.992;2023-07-31T11:47:06;6.50;;;1.50;;
72198;SDS011;60103;51.014;16.992;2023-07-31T11:49:36;5.40;;;1.80;;
72198;SDS011;60103;51.014;16.992;2023-07-31T11:52:05;5.70;;;1.70;;
72198;SDS011;60103;51.014;16.992;2023-07-31T11:54:34;5.50;;;1.80;;
72198;SDS011;60103;51.014;16.992;2023-07-31T11:57:04;7.40;;;1.60;;
72198;SDS011;60103;51.014;16.992;2023-07-31T11:59:34;6.00;;;1.40;;
72198;SDS011;60103;51.014;16.992;2023-07-31T12:02:03;5.00;;;1.30;;
72198;SDS011;60103;51.014;16.992;2023-07-31T12:04:32;6.60;;;1.60;;
72198;SDS011;60103;51.014;16.992;2023-07-31T12:07:01;6.60;;;1.80;;
72198;SDS011;60103;51.014;16.992;2023-07-31T12:09:30;6.30;;;1.40;;
72198;SDS011;60103;51.014;16.992;2023-07-31T12:11:59;6.20;;;1.60;;
72198;SDS011;60103;51.014;16.992;2023-07-31T12:14:28;6.60;;;1.90;;
72198;SDS011;60103;51.014;16.992;2023-07-31T12:16:58;8.10;;;1.90;;
72198;SDS011;60103;51.014;16.992;2023-07-31T12:19:30;6.20;;;1.90;;
72198;SDS011;60103;51.014;16.992;2023-07-31T12:22:00;6.60;;;1.90;;
72198;SDS011;60103;51.014;16.992;2023-07-31T12:24:29;5.30;;;1.70;;
72198;SDS011;60103;51.014;16.992;2023-07-31T12:26:58;6.40;;;1.60;;
72198;SDS011;60103;51.014;16.992;2023-07-31T12:29:36;6.70;;;2.20;;
72198;SDS011;60103;51.014;16.992;2023-07-31T12:32:22;7.80;;;1.80;;
72198;SDS011;60103;51.014;16.992;2023-07-31T12:34:52;7.60;;;2.00;;
72198;SDS011;60103;51.014;16.992;2023-07-31T12:37:21;7.30;;;2.00;;
72198;SDS011;60103;51.014;16.992;2023-07-31T12:39:50;6.30;;;2.10;;
72198;SDS011;60103;51.014;16.992;2023-07-31T12:42:19;6.90;;;1.80;;
72198;SDS011;60103;51.014;16.992;2023-07-31T12:44:48;6.10;;;2.00;;
72198;SDS011;60103;51.014;16.992;2023-07-31T12:47:17;7.10;;;1.70;;
72198;SDS011;60103;51.014;16.992;2023-07-31T12:49:46;7.40;;;2.10;;
72198;SDS011;60103;51.014;16.992;2023-07-31T12:52:15;7.10;;;1.90;;
72198;SDS011;60103;51.014;16.992;2023-07-31T12:54:44;8.90;;;2.50;;
72198;SDS011;60103;51.014;16.992;2023-07-31T12:57:13;7.30;;;2.30;;
72198;SDS011;60103;51.014;16.992;2023-07-31T12:59:42;7.80;;;2.40;;
72198;SDS011;60103;51.014;16.992;2023-07-31T13:02:11;7.70;;;2.30;;
72198;SDS011;60103;51.014;16.992;2023-07-31T13:04:41;7.30;;;2.00;;
72198;SDS011;60103;51.014;16.992;2023-07-31T13:07:09;7.20;;;1.80;;
72198;SDS011;60103;51.014;16.992;2023-07-31T13:09:39;6.40;;;2.00;;
72198;SDS011;60103;51.014;16.992;2023-07-31T13:12:08;5.80;;;1.90;;
72198;SDS011;60103;51.014;16.992;2023-07-31T13:14:37;7.30;;;2.00;;
72198;SDS011;60103;51.014;16.992;2023-07-31T13:17:06;7.70;;;2.00;;
72198;SDS011;60103;51.014;16.992;2023-07-31T13:19:35;6.80;;;2.20;;
72198;SDS011;60103;51.014;16.992;2023-07-31T13:22:04;6.00;;;1.90;;
72198;SDS011;60103;51.014;16.992;2023-07-31T13:24:33;7.60;;;2.20;;
72198;SDS011;60103;51.014;16.992;2023-07-31T13:27:02;7.20;;;1.90;;
72198;SDS011;60103;51.014;16.992;2023-07-31T13:29:32;8.10;;;1.80;;
72198;SDS011;60103;51.014;16.992;2023-07-31T13:32:01;6.90;;;2.50;;
72198;SDS011;60103;51.014;16.992;2023-07-31T13:34:30;6.30;;;2.10;;
72198;SDS011;60103;51.014;16.992;2023-07-31T13:36:59;6.80;;;2.20;;
72198;SDS011;60103;51.014;16.992;2023-07-31T13:39:28;7.80;;;2.10;;
72198;SDS011;60103;51.014;16.992;2023-07-31T13:41:57;6.90;;;2.10;;
72198;SDS011;60103;51.014;16.992;2023-07-31T13:44:26;6.10;;;2.00;;
72198;SDS011;60103;51.014;16.992;2023-07-31T13:46:55;7.00;;;2.40;;
72198;SDS011;60103;51.014;16.992;2023-07-31T13:49:24;7.20;;;2.30;;
72198;SDS011;60103;51.014;16.992;2023-07-31T13:51:52;7.10;;;2.00;;
72198;SDS011;60103;51.014;16.992;2023-07-31T13:54:24;7.30;;;2.10;;
72198;SDS011;60103;51.014;16.992;2023-07-31T13:56:58;7.20;;;2.00;;
72198;SDS011;60103;51.014;16.992;2023-07-31T13:59:27;6.90;;;1.90;;
72198;SDS011;60103;51.014;16.992;2023-07-31T14:01:56;6.70;;;2.20;;
72198;SDS011;60103;51.014;16.992;2023-07-31T14:04:25;7.40;;;2.10;;
72198;SDS011;60103;51.014;16.992;2023-07-31T14:06:55;8.80;;;1.90;;
72198;SDS011;60103;51.014;16.992;2023-07-31T14:09:24;7.80;;;2.40;;
72198;SDS011;60103;51.014;16.992;2023-07-31T14:11:53;7.80;;;2.30;;
72198;SDS011;60103;51.014;16.992;2023-07-31T14:14:22;7.90;;;2.30;;
72198;SDS011;60103;51.014;16.992;2023-07-31T14:16:51;7.20;;;2.00;;
72198;SDS011;60103;51.014;16.992;2023-07-31T14:19:20;7.30;;;2.20;;
72198;SDS011;60103;51.014;16.992;2023-07-31T14:21:50;6.80;;;1.90;;
72198;SDS011;60103;51.014;16.992;2023-07-31T14:24:37;6.80;;;1.90;;
72198;SDS011;60103;51.014;16.992;2023-07-31T14:27:06;7.40;;;2.00;;
72198;SDS011;60103;51.014;16.992;2023-07-31T14:29:35;6.80;;;2.10;;
72198;SDS011;60103;51.014;16.992;2023-07-31T14:32:05;6.00;;;1.80;;
72198;SDS011;60103;51.014;16.992;2023-07-31T14:34:34;6.50;;;1.90;;
72198;SDS011;60103;51.014;16.992;2023-07-31T14:37:03;6.50;;;1.80;;
72198;SDS011;60103;51.014;16.992;2023-07-31T14:39:32;8.50;;;2.00;;
72198;SDS011;60103;51.014;16.992;2023-07-31T14:42:02;6.00;;;1.70;;
72198;SDS011;60103;51.014;16.992;2023-07-31T14:44:31;7.50;;;2.20;;
72198;SDS011;60103;51.014;16.992;2023-07-31T14:47:00;6.40;;;1.80;;
72198;SDS011;60103;51.014;16.992;2023-07-31T14:49:29;7.60;;;2.20;;
72198;SDS011;60103;51.014;16.992;2023-07-31T14:51:58;7.40;;;1.80;;
72198;SDS011;60103;51.014;16.992;2023-07-31T14:54:27;6.30;;;2.00;;
72198;SDS011;60103;51.014;16.992;2023-07-31T14:56:56;6.60;;;2.00;;
72198;SDS011;60103;51.014;16.992;2023-07-31T14:59:25;6.80;;;1.60;;